createdAt,value
2019-03-01T00:01:06.818Z,40.28
2019-03-01T00:03:35.420Z,38.60
2019-03-01T00:06:19.589Z,40.25
2019-03-01T00:09:28.340Z,40.78
2019-03-01T00:12:27.703Z,40.85
2019-03-01T00:15:27.181Z,39.67
2019-03-01T00:18:02.139Z,39.83
2019-03-01T00:20:37.295Z,40.05
2019-03-01T00:23:32.027Z,38.83
2019-03-01T00:26:28.043Z,39.50
2019-03-01T00:29:08.755Z,40.52
2019-03-01T00:32:14.059Z,41.15
2019-03-01T00:35:16.822Z,39.50
2019-03-01T00:38:07.468Z,40.30
2019-03-01T00:41:00.597Z,41.77
2019-03-01T00:43:44.319Z,42.75
2019-03-01T00:46:10.748Z,42.67
2019-03-01T00:48:37.491Z,42.40
2019-03-01T00:51:03.826Z,43.33
2019-03-01T00:53:30.352Z,42.98
2019-03-01T00:55:56.825Z,41.98
2019-03-01T00:58:23.153Z,40.35
2019-03-01T01:00:49.432Z,39.83
2019-03-01T01:03:15.757Z,42.25
2019-03-01T01:05:42.117Z,41.00
2019-03-01T01:08:08.551Z,41.35
2019-03-01T01:10:34.960Z,42.50
2019-03-01T01:13:01.508Z,41.77
2019-03-01T01:15:27.920Z,44.55
2019-03-01T01:17:54.319Z,44.73
2019-03-01T01:20:20.601Z,44.23
2019-03-01T01:22:46.931Z,43.23
2019-03-01T01:25:13.242Z,42.93
2019-03-01T01:27:41.114Z,42.78
2019-03-01T01:37:41.720Z,46.05
2019-03-01T01:40:09.331Z,43.35
2019-03-01T01:42:35.661Z,41.08
2019-03-01T01:45:04.790Z,40.78
2019-03-01T01:47:31.107Z,43.52
2019-03-01T01:49:57.456Z,43.38
2019-03-01T01:52:23.978Z,43.30
2019-03-01T01:54:50.367Z,40.98
2019-03-01T01:57:16.793Z,42.15
2019-03-01T01:59:43.235Z,42.38
2019-03-01T02:02:09.536Z,40.88
2019-03-01T02:04:35.952Z,42.45
2019-03-01T02:07:02.412Z,42.33
2019-03-01T02:09:28.848Z,42.23
2019-03-01T02:11:55.154Z,41.28
2019-03-01T02:14:21.601Z,40.60
2019-03-01T02:16:48.062Z,40.88
2019-03-01T02:19:14.447Z,41.73
2019-03-01T02:21:40.786Z,42.08
2019-03-01T02:24:07.170Z,41.77
2019-03-01T02:26:33.734Z,42.03
2019-03-01T02:29:00.093Z,43.35
2019-03-01T02:31:26.528Z,44.67
2019-03-01T02:33:52.972Z,45.52
2019-03-01T02:36:19.382Z,44.38
2019-03-01T02:38:46.137Z,44.58
2019-03-01T02:41:12.430Z,47.60
2019-03-01T02:43:39.111Z,46.45
2019-03-01T02:46:05.497Z,46.13
2019-03-01T02:48:32.135Z,43.33
2019-03-01T02:50:58.805Z,45.33
2019-03-01T02:53:25.128Z,45.75
2019-03-01T02:55:51.660Z,46.83
2019-03-01T02:58:18.059Z,47.55
2019-03-01T03:00:44.550Z,46.50
2019-03-01T03:03:11.043Z,48.65
2019-03-01T03:05:39.672Z,47.75
2019-03-01T03:08:08.401Z,47.43
2019-03-01T03:10:35.170Z,47.43
2019-03-01T03:13:04.660Z,47.10
2019-03-01T03:15:39.017Z,45.03
2019-03-01T03:18:05.447Z,46.08
2019-03-01T03:20:32.007Z,45.23
2019-03-01T03:22:58.515Z,43.58
2019-03-01T03:25:24.816Z,44.77
2019-03-01T03:27:51.522Z,44.30
2019-03-01T03:30:18.623Z,44.05
2019-03-01T03:32:45.140Z,45.48
2019-03-01T03:35:11.652Z,47.13
2019-03-01T03:37:37.972Z,45.80
2019-03-01T03:40:11.067Z,48.17
2019-03-01T03:42:37.360Z,49.08
2019-03-01T03:45:11.889Z,51.23
2019-03-01T03:47:38.455Z,48.68
2019-03-01T03:50:11.323Z,50.58
2019-03-01T03:52:37.607Z,49.80
2019-03-01T03:55:07.332Z,49.55
2019-03-01T03:57:33.656Z,48.00
2019-03-01T04:00:00.323Z,46.60
2019-03-01T04:02:26.969Z,48.23
2019-03-01T04:04:53.257Z,49.13
2019-03-01T04:07:19.620Z,50.88
2019-03-01T04:09:45.999Z,51.83
2019-03-01T04:12:12.515Z,53.90
2019-03-01T04:14:38.971Z,47.65
2019-03-01T04:17:05.441Z,52.13
2019-03-01T04:19:32.051Z,47.30
2019-03-01T04:21:58.591Z,44.53
2019-03-01T04:24:25.011Z,46.23
2019-03-01T04:26:51.333Z,45.78
2019-03-01T04:29:17.784Z,44.90
2019-03-01T04:31:44.348Z,45.12
2019-03-01T04:34:10.727Z,45.40
2019-03-01T04:36:37.129Z,47.17
2019-03-01T04:39:05.993Z,46.58
2019-03-01T04:41:32.512Z,43.65
2019-03-01T04:43:58.932Z,44.50
2019-03-01T04:46:25.326Z,44.03
2019-03-01T04:48:51.810Z,46.68
2019-03-01T04:51:18.380Z,43.85
2019-03-01T04:53:44.711Z,43.48
2019-03-01T04:56:10.988Z,43.48
2019-03-01T04:58:37.640Z,44.77
2019-03-01T05:01:04.075Z,46.20
2019-03-01T05:03:30.476Z,45.88
2019-03-01T05:05:56.940Z,45.38
2019-03-01T05:08:23.320Z,45.40
2019-03-01T05:10:49.912Z,50.67
2019-03-01T05:13:16.369Z,47.35
2019-03-01T05:15:42.744Z,43.23
2019-03-01T05:18:09.187Z,41.20
2019-03-01T05:20:35.697Z,41.00
2019-03-01T05:23:01.996Z,40.58
2019-03-01T05:25:28.407Z,42.80
2019-03-01T05:27:54.798Z,43.23
2019-03-01T05:30:21.225Z,47.15
2019-03-01T05:32:47.680Z,49.00
2019-03-01T05:35:14.135Z,46.08
2019-03-01T05:37:40.550Z,44.90
2019-03-01T05:40:15.500Z,45.30
2019-03-01T05:42:41.895Z,47.65
2019-03-01T05:45:18.324Z,47.40
2019-03-01T05:47:44.715Z,48.10
2019-03-01T05:50:13.438Z,46.13
2019-03-01T05:52:39.874Z,46.42
2019-03-01T05:55:08.170Z,46.98
2019-03-01T05:57:34.574Z,47.60
2019-03-01T06:00:01.034Z,47.85
2019-03-01T06:02:41.950Z,48.98
2019-03-01T06:05:11.785Z,47.48
2019-03-01T06:07:52.900Z,47.80
2019-03-01T06:10:37.239Z,48.00
2019-03-01T06:13:24.770Z,43.55
2019-03-01T06:16:36.841Z,44.80
2019-03-01T06:19:11.687Z,42.55
2019-03-01T06:22:02.132Z,42.23
2019-03-01T06:24:56.703Z,42.95
2019-03-01T06:27:47.044Z,42.65
2019-03-01T06:30:24.913Z,42.83
2019-03-01T06:33:31.926Z,42.65
2019-03-01T06:36:48.523Z,43.40
2019-03-01T06:39:31.528Z,44.03
2019-03-01T06:42:37.629Z,44.88
2019-03-01T06:45:22.639Z,45.75
2019-03-01T06:47:49.077Z,48.42
2019-03-01T06:50:20.489Z,49.27
2019-03-01T06:52:46.921Z,51.80
2019-03-01T06:55:33.523Z,51.33
2019-03-01T06:57:59.847Z,52.20
2019-03-01T07:00:26.719Z,50.05
2019-03-01T07:03:00.245Z,51.13
2019-03-01T07:05:26.632Z,51.08
2019-03-01T07:07:53.260Z,48.55
2019-03-01T07:10:19.850Z,51.63
2019-03-01T07:12:46.162Z,51.13
2019-03-01T07:15:12.503Z,53.42
2019-03-01T07:17:38.929Z,53.90
2019-03-01T07:20:08.646Z,53.73
2019-03-01T07:22:35.211Z,54.95
2019-03-01T07:25:02.389Z,55.73
2019-03-01T07:27:29.003Z,53.08
2019-03-01T07:29:55.441Z,54.42
2019-03-01T07:32:21.900Z,54.67
2019-03-01T07:34:48.258Z,55.12
2019-03-01T07:37:14.891Z,54.40
2019-03-01T07:39:41.410Z,53.80
2019-03-01T07:42:07.819Z,54.63
2019-03-01T07:44:34.382Z,56.45
2019-03-01T07:47:00.870Z,56.33
2019-03-01T07:49:27.400Z,57.05
2019-03-01T07:51:53.725Z,57.38
2019-03-01T07:54:22.237Z,57.75
2019-03-01T07:56:48.419Z,58.60
2019-03-01T07:59:14.835Z,59.58
2019-03-01T08:01:41.236Z,60.15
2019-03-01T08:04:07.651Z,59.98
2019-03-01T08:06:33.984Z,59.73
2019-03-01T08:09:00.457Z,56.18
2019-03-01T08:11:31.367Z,58.42
2019-03-01T08:13:56.711Z,58.15
2019-03-01T08:16:25.113Z,57.85
2019-03-01T08:18:51.413Z,59.70
2019-03-01T08:21:17.924Z,61.25
2019-03-01T08:23:44.480Z,63.08
2019-03-01T08:26:10.781Z,63.02
2019-03-01T08:28:37.125Z,64.10
2019-03-01T08:31:04.815Z,64.60
2019-03-01T08:33:31.217Z,64.65
2019-03-01T08:35:57.709Z,65.87
2019-03-01T08:38:25.461Z,62.73
2019-03-01T08:40:54.466Z,64.82
2019-03-01T08:43:20.835Z,62.43
2019-03-01T08:45:47.247Z,64.58
2019-03-01T08:48:13.532Z,62.73
2019-03-01T08:50:39.937Z,65.10
2019-03-01T08:53:06.554Z,65.20
2019-03-01T08:55:35.601Z,68.47
2019-03-01T08:58:03.468Z,67.58
2019-03-01T09:00:40.007Z,68.80
2019-03-01T09:03:11.946Z,70.25
2019-03-01T09:05:38.229Z,68.87
2019-03-01T09:08:04.540Z,69.62
2019-03-01T09:10:32.754Z,72.27
2019-03-01T09:12:59.383Z,69.90
2019-03-01T09:15:25.783Z,66.57
2019-03-01T09:17:52.530Z,66.20
2019-03-01T09:20:19.112Z,65.97
2019-03-01T09:22:45.543Z,67.65
2019-03-01T09:25:13.450Z,66.57
2019-03-01T09:27:39.879Z,69.77
2019-03-01T09:30:17.759Z,70.03
2019-03-01T09:32:44.147Z,69.70
2019-03-01T09:35:15.967Z,71.15
2019-03-01T09:37:42.500Z,72.78
2019-03-01T09:40:08.925Z,72.80
2019-03-01T09:42:35.384Z,69.40
2019-03-01T09:45:01.735Z,71.42
2019-03-01T09:47:28.122Z,68.87
2019-03-01T09:49:56.598Z,68.22
2019-03-01T09:52:23.624Z,71.00
2019-03-01T09:54:50.978Z,70.00
2019-03-01T09:57:17.273Z,72.50
2019-03-01T09:59:43.634Z,71.62
2019-03-01T10:02:10.022Z,74.37
2019-03-01T10:04:36.700Z,78.70
2019-03-01T10:07:02.986Z,79.87
2019-03-01T10:09:29.394Z,82.15
2019-03-01T10:11:55.803Z,84.62
2019-03-01T10:14:22.096Z,77.75
2019-03-01T10:16:51.730Z,75.55
2019-03-01T10:19:18.483Z,79.25
2019-03-01T10:21:44.786Z,78.17
2019-03-01T10:24:11.454Z,80.65
2019-03-01T10:26:37.740Z,80.07
2019-03-01T10:29:04.267Z,81.02
2019-03-01T10:31:30.665Z,85.12
2019-03-01T10:33:56.976Z,90.30
2019-03-01T10:36:23.262Z,88.78
2019-03-01T10:38:49.818Z,90.53
2019-03-01T10:41:16.132Z,89.55
2019-03-01T10:43:42.443Z,87.97
2019-03-01T10:46:09.102Z,84.00
2019-03-01T10:48:35.486Z,84.62
2019-03-01T10:51:02.044Z,79.90
2019-03-01T10:53:28.418Z,79.17
2019-03-01T10:55:54.767Z,84.20
2019-03-01T10:58:21.337Z,83.52
2019-03-01T11:00:47.764Z,87.08
2019-03-01T11:03:14.260Z,88.58
2019-03-01T11:05:40.562Z,89.83
2019-03-01T11:08:06.931Z,90.12
2019-03-01T11:10:39.241Z,85.20
2019-03-01T11:13:16.347Z,86.20
2019-03-01T11:15:42.636Z,82.47
2019-03-01T11:18:08.999Z,82.72
2019-03-01T11:20:35.461Z,86.70
2019-03-01T11:23:01.888Z,89.32
2019-03-01T11:25:28.268Z,86.57
2019-03-01T11:27:54.599Z,86.08
2019-03-01T11:30:34.974Z,88.42
2019-03-01T11:33:01.423Z,87.45
2019-03-01T11:35:27.840Z,89.17
2019-03-01T11:37:54.208Z,87.95
2019-03-01T11:40:32.723Z,90.42
2019-03-01T11:42:59.194Z,94.37
2019-03-01T11:45:25.715Z,90.32
2019-03-01T11:47:52.006Z,86.78
2019-03-01T11:50:23.946Z,88.20
2019-03-01T11:52:50.247Z,93.60
2019-03-01T11:55:16.669Z,90.45
2019-03-01T11:57:42.972Z,90.10
2019-03-01T12:00:18.471Z,95.65
2019-03-01T12:02:45.351Z,109.07
2019-03-01T12:05:13.035Z,115.00
2019-03-01T12:07:39.336Z,89.77
2019-03-01T12:10:13.211Z,95.25
2019-03-01T12:12:39.715Z,93.17
2019-03-01T12:15:08.947Z,94.50
2019-03-01T12:17:35.231Z,89.92
2019-03-01T12:20:01.620Z,93.00
2019-03-01T12:22:28.072Z,91.35
2019-03-01T12:24:54.475Z,92.90
2019-03-01T12:27:21.004Z,88.82
2019-03-01T12:29:47.439Z,85.28
2019-03-01T12:32:13.863Z,81.53
2019-03-01T12:34:40.305Z,84.07
2019-03-01T12:37:06.830Z,85.85
2019-03-01T12:39:33.250Z,86.05
2019-03-01T12:41:59.550Z,83.60
2019-03-01T12:44:26.106Z,89.03
2019-03-01T12:46:52.505Z,85.60
2019-03-01T12:49:18.942Z,94.15
2019-03-01T12:51:45.371Z,93.82
2019-03-01T12:54:11.781Z,88.10
2019-03-01T12:56:38.318Z,87.88
2019-03-01T12:59:04.750Z,81.78
2019-03-01T13:01:31.145Z,88.50
2019-03-01T13:03:57.736Z,89.60
2019-03-01T13:06:24.267Z,94.87
2019-03-01T13:08:51.542Z,90.95
2019-03-01T13:11:18.962Z,99.67
2019-03-01T13:13:45.627Z,86.67
2019-03-01T13:16:12.140Z,87.15
2019-03-01T13:18:38.530Z,86.75
2019-03-01T13:21:05.000Z,90.42
2019-03-01T13:23:31.386Z,86.10
2019-03-01T13:25:57.711Z,85.55
2019-03-01T13:28:24.183Z,80.60
2019-03-01T13:30:50.621Z,83.52
2019-03-01T13:33:17.003Z,87.37
2019-03-01T13:35:43.463Z,89.25
2019-03-01T13:38:09.751Z,89.35
2019-03-01T13:40:36.331Z,89.45
2019-03-01T13:43:02.715Z,95.55
2019-03-01T13:45:29.052Z,93.10
2019-03-01T13:47:55.461Z,92.17
2019-03-01T13:50:21.918Z,89.42
2019-03-01T13:52:49.740Z,88.90
2019-03-01T13:55:18.588Z,85.20
2019-03-01T13:57:45.926Z,89.28
2019-03-01T14:00:17.246Z,92.12
2019-03-01T14:02:46.946Z,94.15
2019-03-01T14:05:17.054Z,102.20
2019-03-01T14:07:42.467Z,118.62
2019-03-01T14:10:12.603Z,128.02
2019-03-01T14:12:38.903Z,142.75
2019-03-01T14:15:13.283Z,130.43
2019-03-01T14:17:39.778Z,121.15
2019-03-01T14:20:19.075Z,127.53
2019-03-01T14:25:43.607Z,192.40
2019-03-01T14:28:09.902Z,160.65
2019-03-01T14:30:36.495Z,135.80
2019-03-01T14:33:03.096Z,128.78
2019-03-01T14:35:29.464Z,123.78
2019-03-01T14:37:55.928Z,122.45
2019-03-01T14:40:23.660Z,129.47
2019-03-01T14:42:50.488Z,133.32
2019-03-01T14:45:31.487Z,162.80
2019-03-01T14:47:57.787Z,114.17
2019-03-01T14:50:25.927Z,141.82
2019-03-01T14:52:56.922Z,135.25
2019-03-01T14:55:44.184Z,116.97
2019-03-01T14:58:28.188Z,116.60
2019-03-01T15:01:26.876Z,115.20
2019-03-01T15:03:53.577Z,143.80
2019-03-01T15:06:20.734Z,145.90
2019-03-01T15:08:47.147Z,118.53
2019-03-01T15:11:13.932Z,123.78
2019-03-01T15:13:41.414Z,146.80
2019-03-01T15:16:08.105Z,128.23
2019-03-01T15:18:36.422Z,125.92
2019-03-01T15:21:04.664Z,148.02
2019-03-01T15:23:30.987Z,172.60
2019-03-01T15:25:57.768Z,200.10
2019-03-01T15:28:24.291Z,252.05
2019-03-01T15:30:51.039Z,315.73
2019-03-01T15:33:17.431Z,247.27
2019-03-01T15:35:43.794Z,216.60
2019-03-01T15:38:10.880Z,266.48
2019-03-01T15:40:37.561Z,179.57
2019-03-01T15:43:04.259Z,128.20
2019-03-01T15:45:30.958Z,140.18
2019-03-01T15:47:58.843Z,130.45
2019-03-01T15:50:27.208Z,105.22
2019-03-01T15:52:54.239Z,117.10
2019-03-01T15:55:20.752Z,131.60
2019-03-01T15:57:47.133Z,134.82
2019-03-01T16:00:16.474Z,124.58
2019-03-01T16:02:42.979Z,111.77
2019-03-01T16:05:11.946Z,107.07
2019-03-01T16:07:38.279Z,109.37
2019-03-01T16:10:10.243Z,111.42
2019-03-01T16:12:36.590Z,119.13
2019-03-01T16:15:08.680Z,115.40
2019-03-01T16:17:34.987Z,110.63
2019-03-01T16:20:01.328Z,108.83
2019-03-01T16:22:27.838Z,163.40
2019-03-01T16:24:54.235Z,133.93
2019-03-01T16:27:20.635Z,180.18
2019-03-01T16:29:46.952Z,185.75
2019-03-01T16:32:13.499Z,178.47
2019-03-01T16:34:41.400Z,158.75
2019-03-01T16:37:08.580Z,137.82
2019-03-01T16:39:35.065Z,145.95
2019-03-01T16:42:01.550Z,139.07
2019-03-01T16:44:28.083Z,234.85
2019-03-01T16:46:54.464Z,185.57
2019-03-01T16:49:23.590Z,106.47
2019-03-01T16:51:50.596Z,82.20
2019-03-01T16:54:17.581Z,73.35
2019-03-01T16:56:43.888Z,105.67
2019-03-01T16:59:10.853Z,108.47
2019-03-01T17:01:37.135Z,115.25
2019-03-01T17:04:03.658Z,100.80
2019-03-01T17:06:30.563Z,94.35
2019-03-01T17:08:56.884Z,134.70
2019-03-01T17:11:23.500Z,117.47
2019-03-01T17:13:49.823Z,80.53
2019-03-01T17:16:16.180Z,77.37
2019-03-01T17:18:44.560Z,78.52
2019-03-01T17:21:12.404Z,101.27
2019-03-01T17:23:39.214Z,93.50
2019-03-01T17:26:06.967Z,73.62
2019-03-01T17:28:33.387Z,69.05
2019-03-01T17:30:59.703Z,48.85
2019-03-01T17:33:26.212Z,59.67
2019-03-01T17:35:52.902Z,73.17
2019-03-01T17:38:19.197Z,75.97
2019-03-01T17:40:45.526Z,82.30
2019-03-01T17:43:11.963Z,75.30
2019-03-01T17:45:38.365Z,80.00
2019-03-01T17:48:04.693Z,72.12
2019-03-01T17:50:31.020Z,75.70
2019-03-01T17:52:57.569Z,85.60
2019-03-01T17:55:26.361Z,81.67
2019-03-01T17:57:52.687Z,78.72
2019-03-01T18:00:32.458Z,75.85
2019-03-01T18:03:00.411Z,78.62
2019-03-01T18:05:27.077Z,82.88
2019-03-01T18:07:53.501Z,83.92
2019-03-01T18:10:19.991Z,82.62
2019-03-01T18:12:46.386Z,83.10
2019-03-01T18:15:15.708Z,85.77
2019-03-01T18:17:42.951Z,83.58
2019-03-01T18:20:11.295Z,80.53
2019-03-01T18:22:37.787Z,75.62
2019-03-01T18:25:12.968Z,64.87
2019-03-01T18:27:40.148Z,65.27
2019-03-01T18:30:19.858Z,72.80
2019-03-01T18:32:46.748Z,79.77
2019-03-01T18:35:13.158Z,77.25
2019-03-01T18:37:39.549Z,83.10
2019-03-01T18:40:13.447Z,85.75
2019-03-01T18:42:39.849Z,69.12
2019-03-01T18:45:21.786Z,58.85
2019-03-01T18:47:48.137Z,63.38
2019-03-01T18:50:34.304Z,68.22
2019-03-01T18:53:03.905Z,72.65
2019-03-01T18:55:30.346Z,74.58
2019-03-01T18:57:56.875Z,72.40
2019-03-01T19:00:32.411Z,73.05
2019-03-01T19:03:04.469Z,69.00
2019-03-01T19:05:31.868Z,63.40
2019-03-01T19:08:00.812Z,62.40
2019-03-01T19:10:27.616Z,64.22
2019-03-01T19:12:55.091Z,62.67
2019-03-01T19:15:21.585Z,63.58
2019-03-01T19:17:48.268Z,65.03
2019-03-01T19:20:27.397Z,68.83
2019-03-01T19:22:53.941Z,71.77
2019-03-01T19:25:21.636Z,71.20
2019-03-01T19:27:50.805Z,71.00
2019-03-01T19:30:23.574Z,69.90
2019-03-01T19:32:50.393Z,69.60
2019-03-01T19:35:16.824Z,67.00
2019-03-01T19:37:45.788Z,70.92
2019-03-01T19:40:18.742Z,68.10
2019-03-01T19:42:45.675Z,72.60
2019-03-01T19:45:16.835Z,72.55
2019-03-01T19:47:43.513Z,71.53
2019-03-01T19:50:21.704Z,78.78
2019-03-01T19:52:50.399Z,80.45
2019-03-01T19:55:17.093Z,76.65
2019-03-01T19:57:43.617Z,73.72
2019-03-01T20:00:22.919Z,79.85
2019-03-01T20:02:49.524Z,94.28
2019-03-01T20:05:31.721Z,89.83
2019-03-01T20:07:56.700Z,95.20
2019-03-01T20:10:23.596Z,100.72
2019-03-01T20:12:50.220Z,65.37
2019-03-01T20:15:20.615Z,68.75
2019-03-01T20:17:47.566Z,78.83
2019-03-01T20:20:17.076Z,71.53
2019-03-01T20:22:43.468Z,70.78
2019-03-01T20:25:16.153Z,55.03
2019-03-01T20:27:41.668Z,55.45
2019-03-01T20:30:13.264Z,54.27
2019-03-01T20:32:40.155Z,70.08
2019-03-01T20:35:09.681Z,80.45
2019-03-01T20:37:39.878Z,78.02
2019-03-01T20:40:11.373Z,78.35
2019-03-01T20:42:38.095Z,80.25
2019-03-01T20:45:12.719Z,76.50
2019-03-01T20:47:39.359Z,78.55
2019-03-01T20:50:08.247Z,72.30
2019-03-01T20:52:34.778Z,62.00
2019-03-01T20:55:01.761Z,57.73
2019-03-01T20:57:28.373Z,56.83
2019-03-01T20:59:54.746Z,62.38
2019-03-01T21:02:21.130Z,70.65
2019-03-01T21:04:53.357Z,80.55
2019-03-01T21:07:16.572Z,85.77
2019-03-01T21:09:43.144Z,61.02
2019-03-01T21:12:09.520Z,68.35
2019-03-01T21:14:35.849Z,81.60
2019-03-01T21:17:02.484Z,63.15
2019-03-01T21:19:28.980Z,61.08
2019-03-01T21:21:55.441Z,62.83
2019-03-01T21:24:26.540Z,70.55
2019-03-01T21:26:52.340Z,62.03
2019-03-01T21:29:18.673Z,53.87
2019-03-01T21:31:44.992Z,55.85
2019-03-01T21:34:11.514Z,46.77
2019-03-01T21:36:37.719Z,43.35
2019-03-01T21:39:05.879Z,64.10
2019-03-01T21:41:32.287Z,48.23
2019-03-01T21:43:58.487Z,77.10
2019-03-01T21:46:25.135Z,55.92
2019-03-01T21:48:51.452Z,60.33
2019-03-01T21:51:18.499Z,55.75
2019-03-01T21:53:45.331Z,61.75
2019-03-01T21:56:11.839Z,50.10
2019-03-01T21:58:38.657Z,71.40
2019-03-01T22:01:07.023Z,48.90
2019-03-01T22:03:34.023Z,64.60
2019-03-01T22:06:00.460Z,55.28
2019-03-01T22:08:27.103Z,69.77
2019-03-01T22:10:53.587Z,51.33
2019-03-01T22:13:19.968Z,53.17
2019-03-01T22:15:46.335Z,53.25
2019-03-01T22:18:12.674Z,58.50
2019-03-01T22:20:41.549Z,57.13
2019-03-01T22:23:09.826Z,49.15
2019-03-01T22:25:37.892Z,47.38
2019-03-01T22:30:51.088Z,46.55
2019-03-01T22:33:20.728Z,51.77
2019-03-01T22:35:45.649Z,48.98
2019-03-01T22:38:11.941Z,54.25
2019-03-01T22:40:38.391Z,51.63
2019-03-01T22:43:04.811Z,54.33
2019-03-01T22:45:31.246Z,61.73
2019-03-01T22:47:57.815Z,53.98
2019-03-01T22:50:24.102Z,50.43
2019-03-01T22:52:50.536Z,49.03
2019-03-01T22:55:18.326Z,45.60
2019-03-01T22:57:45.155Z,44.83
2019-03-01T23:00:47.793Z,43.20
2019-03-01T23:03:18.847Z,42.67
2019-03-01T23:05:44.033Z,41.23
2019-03-01T23:08:10.413Z,42.78
2019-03-01T23:10:37.150Z,38.75
2019-03-01T23:13:03.935Z,39.03
2019-03-01T23:15:30.478Z,41.55
2019-03-01T23:17:56.945Z,40.65
2019-03-01T23:20:26.391Z,37.67
2019-03-01T23:22:51.943Z,37.67
2019-03-01T23:25:18.367Z,35.95
2019-03-01T23:27:44.760Z,35.52
2019-03-01T23:30:11.401Z,39.80
2019-03-01T23:32:37.794Z,37.08
2019-03-01T23:35:04.823Z,37.23
2019-03-01T23:37:31.298Z,35.05
2019-03-01T23:40:01.091Z,37.93
2019-03-01T23:42:26.023Z,38.17
2019-03-01T23:44:52.429Z,35.35
2019-03-01T23:47:19.061Z,35.08
2019-03-01T23:49:45.506Z,43.13
2019-03-01T23:52:12.114Z,44.13
2019-03-01T23:54:40.681Z,40.12
2019-03-01T23:57:06.970Z,42.25
2019-03-01T23:59:33.548Z,41.88
